sensor_id;sensor_type;location;lat;lon;timestamp;temperature;humidity
35129;DHT22;21301;43.626;10.580;2022-12-29T00:02:13;13.30;99.90
35129;DHT22;21301;43.626;10.580;2022-12-29T00:04:39;13.10;99.90
35129;DHT22;21301;43.626;10.580;2022-12-29T00:07:05;13.10;99.90
35129;DHT22;21301;43.626;10.580;2022-12-29T00:09:32;13.10;99.90
35129;DHT22;21301;43.626;10.580;2022-12-29T00:11:58;13.10;99.90
35129;DHT22;21301;43.626;10.580;2022-12-29T00:14:25;13.20;99.90
35129;DHT22;21301;43.626;10.580;2022-12-29T00:17:09;13.20;99.90
35129;DHT22;21301;43.626;10.580;2022-12-29T00:19:35;13.10;99.90
35129;DHT22;21301;43.626;10.580;2022-12-29T00:22:19;13.10;99.90
35129;DHT22;21301;43.626;10.580;2022-12-29T00:25:04;13.20;99.90
35129;DHT22;21301;43.626;10.580;2022-12-29T00:27:31;13.20;99.90
35129;DHT22;21301;43.626;10.580;2022-12-29T00:30:20;13.20;99.90
35129;DHT22;21301;43.626;10.580;2022-12-29T00:33:13;13.30;99.90
35129;DHT22;21301;43.626;10.580;2022-12-29T00:38:29;13.10;99.90
35129;DHT22;21301;43.626;10.580;2022-12-29T00:41:15;13.20;99.90
35129;DHT22;21301;43.626;10.580;2022-12-29T00:44:00;13.10;99.90
35129;DHT22;21301;43.626;10.580;2022-12-29T00:46:33;13.10;99.90
35129;DHT22;21301;43.626;10.580;2022-12-29T00:49:00;13.20;99.90
35129;DHT22;21301;43.626;10.580;2022-12-29T00:51:44;13.30;99.90
35129;DHT22;21301;43.626;10.580;2022-12-29T00:54:10;13.20;99.90
35129;DHT22;21301;43.626;10.580;2022-12-29T00:56:36;13.20;99.90
35129;DHT22;21301;43.626;10.580;2022-12-29T00:59:07;13.10;99.90
35129;DHT22;21301;43.626;10.580;2022-12-29T01:01:34;13.20;99.90
35129;DHT22;21301;43.626;10.580;2022-12-29T01:04:00;13.10;99.90
35129;DHT22;21301;43.626;10.580;2022-12-29T01:06:27;13.10;99.90
35129;DHT22;21301;43.626;10.580;2022-12-29T01:08:52;13.20;99.90
35129;DHT22;21301;43.626;10.580;2022-12-29T01:11:38;13.20;99.90
35129;DHT22;21301;43.626;10.580;2022-12-29T01:14:06;13.20;99.90
35129;DHT22;21301;43.626;10.580;2022-12-29T01:16:31;13.20;99.90
35129;DHT22;21301;43.626;10.580;2022-12-29T01:18:57;13.10;99.90
35129;DHT22;21301;43.626;10.580;2022-12-29T01:21:23;13.10;99.90
35129;DHT22;21301;43.626;10.580;2022-12-29T01:23:50;12.90;99.90
35129;DHT22;21301;43.626;10.580;2022-12-29T01:26:17;13.10;99.90
35129;DHT22;21301;43.626;10.580;2022-12-29T01:28:42;13.10;99.90
35129;DHT22;21301;43.626;10.580;2022-12-29T01:31:09;13.10;99.90
35129;DHT22;21301;43.626;10.580;2022-12-29T01:33:36;13.00;99.90
35129;DHT22;21301;43.626;10.580;2022-12-29T01:36:08;12.80;99.90
35129;DHT22;21301;43.626;10.580;2022-12-29T01:38:36;12.90;99.90
35129;DHT22;21301;43.626;10.580;2022-12-29T01:41:02;12.80;99.90
35129;DHT22;21301;43.626;10.580;2022-12-29T01:43:48;13.00;99.90
35129;DHT22;21301;43.626;10.580;2022-12-29T01:46:28;12.80;99.90
35129;DHT22;21301;43.626;10.580;2022-12-29T01:49:03;12.80;99.90
35129;DHT22;21301;43.626;10.580;2022-12-29T01:51:31;12.80;99.90
35129;DHT22;21301;43.626;10.580;2022-12-29T01:54:01;12.70;99.90
35129;DHT22;21301;43.626;10.580;2022-12-29T01:56:28;12.60;99.90
35129;DHT22;21301;43.626;10.580;2022-12-29T01:59:01;12.60;99.90
35129;DHT22;21301;43.626;10.580;2022-12-29T02:01:27;12.70;99.90
35129;DHT22;21301;43.626;10.580;2022-12-29T02:03:53;12.60;99.90
35129;DHT22;21301;43.626;10.580;2022-12-29T02:06:26;12.50;99.90
35129;DHT22;21301;43.626;10.580;2022-12-29T02:08:55;12.40;99.90
35129;DHT22;21301;43.626;10.580;2022-12-29T02:11:23;12.40;99.90
35129;DHT22;21301;43.626;10.580;2022-12-29T02:13:51;12.40;99.90
35129;DHT22;21301;43.626;10.580;2022-12-29T02:19:08;12.50;99.90
35129;DHT22;21301;43.626;10.580;2022-12-29T02:29:46;12.60;99.90
35129;DHT22;21301;43.626;10.580;2022-12-29T02:38:03;12.40;99.90
35129;DHT22;21301;43.626;10.580;2022-12-29T02:40:46;12.40;99.90
35129;DHT22;21301;43.626;10.580;2022-12-29T02:43:32;12.40;99.90
35129;DHT22;21301;43.626;10.580;2022-12-29T02:51:57;12.60;99.90
35129;DHT22;21301;43.626;10.580;2022-12-29T02:54:24;12.40;99.90
35129;DHT22;21301;43.626;10.580;2022-12-29T02:59:51;12.60;99.90
35129;DHT22;21301;43.626;10.580;2022-12-29T03:02:50;12.50;99.90
35129;DHT22;21301;43.626;10.580;2022-12-29T03:08:28;12.50;99.90
35129;DHT22;21301;43.626;10.580;2022-12-29T03:13:44;12.40;99.90
35129;DHT22;21301;43.626;10.580;2022-12-29T03:21:56;12.10;99.90
35129;DHT22;21301;43.626;10.580;2022-12-29T03:24:52;12.10;99.90
35129;DHT22;21301;43.626;10.580;2022-12-29T03:27:23;12.20;99.90
35129;DHT22;21301;43.626;10.580;2022-12-29T03:29:58;12.20;99.90
35129;DHT22;21301;43.626;10.580;2022-12-29T03:32:34;12.20;99.90
35129;DHT22;21301;43.626;10.580;2022-12-29T03:35:03;12.30;99.90
35129;DHT22;21301;43.626;10.580;2022-12-29T03:37:39;12.30;99.90
35129;DHT22;21301;43.626;10.580;2022-12-29T03:40:08;12.30;99.90
35129;DHT22;21301;43.626;10.580;2022-12-29T03:42:35;12.40;99.90
35129;DHT22;21301;43.626;10.580;2022-12-29T03:45:04;12.40;99.90
35129;DHT22;21301;43.626;10.580;2022-12-29T03:47:31;12.50;99.90
35129;DHT22;21301;43.626;10.580;2022-12-29T03:49:57;12.50;99.90
35129;DHT22;21301;43.626;10.580;2022-12-29T03:52:23;12.40;99.90
35129;DHT22;21301;43.626;10.580;2022-12-29T03:54:51;12.40;99.90
35129;DHT22;21301;43.626;10.580;2022-12-29T03:57:17;12.40;99.90
35129;DHT22;21301;43.626;10.580;2022-12-29T04:00:04;12.30;99.90
35129;DHT22;21301;43.626;10.580;2022-12-29T04:02:41;12.30;99.90
35129;DHT22;21301;43.626;10.580;2022-12-29T04:05:08;12.30;99.90
35129;DHT22;21301;43.626;10.580;2022-12-29T04:07:34;12.40;99.90
35129;DHT22;21301;43.626;10.580;2022-12-29T04:10:02;12.40;99.90
35129;DHT22;21301;43.626;10.580;2022-12-29T04:12:31;12.50;99.90
35129;DHT22;21301;43.626;10.580;2022-12-29T04:14:57;12.50;99.90
35129;DHT22;21301;43.626;10.580;2022-12-29T04:17:24;12.50;99.90
35129;DHT22;21301;43.626;10.580;2022-12-29T04:19:52;12.50;99.90
35129;DHT22;21301;43.626;10.580;2022-12-29T04:22:37;12.40;99.90
35129;DHT22;21301;43.626;10.580;2022-12-29T04:25:04;12.50;99.90
35129;DHT22;21301;43.626;10.580;2022-12-29T04:27:29;12.50;99.90
35129;DHT22;21301;43.626;10.580;2022-12-29T04:30:18;12.60;99.90
35129;DHT22;21301;43.626;10.580;2022-12-29T04:33:01;12.60;99.90
35129;DHT22;21301;43.626;10.580;2022-12-29T04:35:28;12.60;99.90
35129;DHT22;21301;43.626;10.580;2022-12-29T04:37:57;12.70;99.90
35129;DHT22;21301;43.626;10.580;2022-12-29T04:40:23;12.70;99.90
35129;DHT22;21301;43.626;10.580;2022-12-29T04:42:49;12.50;99.90
35129;DHT22;21301;43.626;10.580;2022-12-29T04:45:17;12.60;99.90
35129;DHT22;21301;43.626;10.580;2022-12-29T04:47:58;12.60;99.90
35129;DHT22;21301;43.626;10.580;2022-12-29T04:50:36;12.70;99.90
35129;DHT22;21301;43.626;10.580;2022-12-29T04:53:17;12.80;99.90
35129;DHT22;21301;43.626;10.580;2022-12-29T04:55:44;12.80;99.90
35129;DHT22;21301;43.626;10.580;2022-12-29T04:58:09;12.90;99.90
35129;DHT22;21301;43.626;10.580;2022-12-29T05:00:36;12.80;99.90
35129;DHT22;21301;43.626;10.580;2022-12-29T05:03:01;12.80;99.90
35129;DHT22;21301;43.626;10.580;2022-12-29T05:05:28;12.70;99.90
35129;DHT22;21301;43.626;10.580;2022-12-29T05:07:55;12.70;99.90
35129;DHT22;21301;43.626;10.580;2022-12-29T05:10:21;12.50;99.90
35129;DHT22;21301;43.626;10.580;2022-12-29T05:12:50;12.50;99.90
35129;DHT22;21301;43.626;10.580;2022-12-29T05:15:17;12.40;99.90
35129;DHT22;21301;43.626;10.580;2022-12-29T05:17:43;12.40;99.90
35129;DHT22;21301;43.626;10.580;2022-12-29T05:20:09;12.40;99.90
35129;DHT22;21301;43.626;10.580;2022-12-29T05:22:36;12.40;99.90
35129;DHT22;21301;43.626;10.580;2022-12-29T05:25:04;12.40;99.90
35129;DHT22;21301;43.626;10.580;2022-12-29T05:27:34;12.40;99.90
35129;DHT22;21301;43.626;10.580;2022-12-29T05:30:15;12.40;99.90
35129;DHT22;21301;43.626;10.580;2022-12-29T05:32:41;12.30;99.90
35129;DHT22;21301;43.626;10.580;2022-12-29T05:35:07;12.30;99.90
35129;DHT22;21301;43.626;10.580;2022-12-29T05:37:33;12.30;99.90
35129;DHT22;21301;43.626;10.580;2022-12-29T05:39:59;12.30;99.90
35129;DHT22;21301;43.626;10.580;2022-12-29T05:42:25;12.20;99.90
35129;DHT22;21301;43.626;10.580;2022-12-29T05:44:57;12.20;99.90
35129;DHT22;21301;43.626;10.580;2022-12-29T05:47:34;12.20;99.90
35129;DHT22;21301;43.626;10.580;2022-12-29T05:50:19;12.10;99.90
35129;DHT22;21301;43.626;10.580;2022-12-29T05:53:07;12.10;99.90
35129;DHT22;21301;43.626;10.580;2022-12-29T05:55:35;12.00;99.90
35129;DHT22;21301;43.626;10.580;2022-12-29T05:58:01;12.00;99.90
35129;DHT22;21301;43.626;10.580;2022-12-29T06:00:27;12.00;99.90
35129;DHT22;21301;43.626;10.580;2022-12-29T06:02:52;12.00;99.90
35129;DHT22;21301;43.626;10.580;2022-12-29T06:05:19;12.00;99.90
35129;DHT22;21301;43.626;10.580;2022-12-29T06:07:44;12.00;99.90
35129;DHT22;21301;43.626;10.580;2022-12-29T06:10:13;11.90;99.90
35129;DHT22;21301;43.626;10.580;2022-12-29T06:12:46;11.90;99.90
35129;DHT22;21301;43.626;10.580;2022-12-29T06:15:14;12.00;99.90
35129;DHT22;21301;43.626;10.580;2022-12-29T06:17:41;12.00;99.90
35129;DHT22;21301;43.626;10.580;2022-12-29T06:20:08;12.10;99.90
35129;DHT22;21301;43.626;10.580;2022-12-29T06:22:34;12.20;99.90
35129;DHT22;21301;43.626;10.580;2022-12-29T06:25:01;12.20;99.90
35129;DHT22;21301;43.626;10.580;2022-12-29T06:27:28;12.10;99.90
35129;DHT22;21301;43.626;10.580;2022-12-29T06:29:54;12.00;99.90
35129;DHT22;21301;43.626;10.580;2022-12-29T06:32:20;11.90;99.90
35129;DHT22;21301;43.626;10.580;2022-12-29T06:34:50;11.80;99.90
35129;DHT22;21301;43.626;10.580;2022-12-29T06:37:16;11.80;99.90
35129;DHT22;21301;43.626;10.580;2022-12-29T06:39:42;11.60;99.90
35129;DHT22;21301;43.626;10.580;2022-12-29T06:42:11;11.70;99.90
35129;DHT22;21301;43.626;10.580;2022-12-29T06:44:40;11.90;99.90
35129;DHT22;21301;43.626;10.580;2022-12-29T06:47:09;11.80;99.90
35129;DHT22;21301;43.626;10.580;2022-12-29T06:49:34;11.90;99.90
35129;DHT22;21301;43.626;10.580;2022-12-29T06:52:00;11.90;99.90
35129;DHT22;21301;43.626;10.580;2022-12-29T06:54:30;11.70;99.90
35129;DHT22;21301;43.626;10.580;2022-12-29T06:56:56;11.60;99.90
35129;DHT22;21301;43.626;10.580;2022-12-29T06:59:22;11.50;99.90
35129;DHT22;21301;43.626;10.580;2022-12-29T07:01:49;11.60;99.90
35129;DHT22;21301;43.626;10.580;2022-12-29T07:04:14;11.60;99.90
35129;DHT22;21301;43.626;10.580;2022-12-29T07:06:40;11.60;99.90
35129;DHT22;21301;43.626;10.580;2022-12-29T07:09:07;11.70;99.90
35129;DHT22;21301;43.626;10.580;2022-12-29T07:11:33;11.90;99.90
35129;DHT22;21301;43.626;10.580;2022-12-29T07:13:59;12.00;99.90
35129;DHT22;21301;43.626;10.580;2022-12-29T07:16:25;12.00;99.90
35129;DHT22;21301;43.626;10.580;2022-12-29T07:18:51;12.00;99.90
35129;DHT22;21301;43.626;10.580;2022-12-29T07:21:17;11.90;99.90
35129;DHT22;21301;43.626;10.580;2022-12-29T07:23:43;11.90;99.90
35129;DHT22;21301;43.626;10.580;2022-12-29T07:26:12;11.80;99.90
35129;DHT22;21301;43.626;10.580;2022-12-29T07:28:38;11.80;99.90
35129;DHT22;21301;43.626;10.580;2022-12-29T07:31:23;11.70;99.90
35129;DHT22;21301;43.626;10.580;2022-12-29T07:33:49;12.10;99.90
35129;DHT22;21301;43.626;10.580;2022-12-29T07:36:16;13.50;99.90
35129;DHT22;21301;43.626;10.580;2022-12-29T07:38:42;14.60;99.90
35129;DHT22;21301;43.626;10.580;2022-12-29T07:41:08;15.50;99.90
35129;DHT22;21301;43.626;10.580;2022-12-29T07:43:34;16.60;99.90
35129;DHT22;21301;43.626;10.580;2022-12-29T07:46:23;17.10;99.90
35129;DHT22;21301;43.626;10.580;2022-12-29T07:48:49;17.90;99.90
35129;DHT22;21301;43.626;10.580;2022-12-29T07:51:15;18.10;99.90
35129;DHT22;21301;43.626;10.580;2022-12-29T07:53:41;18.70;99.90
35129;DHT22;21301;43.626;10.580;2022-12-29T07:56:07;19.00;99.90
35129;DHT22;21301;43.626;10.580;2022-12-29T07:58:33;19.00;99.90
35129;DHT22;21301;43.626;10.580;2022-12-29T08:00:58;19.70;99.90
35129;DHT22;21301;43.626;10.580;2022-12-29T08:03:24;20.50;99.90
35129;DHT22;21301;43.626;10.580;2022-12-29T08:05:52;21.40;99.90
35129;DHT22;21301;43.626;10.580;2022-12-29T08:08:18;22.20;99.90
35129;DHT22;21301;43.626;10.580;2022-12-29T08:10:44;22.80;99.90
35129;DHT22;21301;43.626;10.580;2022-12-29T08:13:09;23.00;99.90
35129;DHT22;21301;43.626;10.580;2022-12-29T08:15:37;22.60;99.90
35129;DHT22;21301;43.626;10.580;2022-12-29T08:18:03;23.90;99.90
35129;DHT22;21301;43.626;10.580;2022-12-29T08:20:29;24.80;99.90
35129;DHT22;21301;43.626;10.580;2022-12-29T08:22:55;26.10;99.90
35129;DHT22;21301;43.626;10.580;2022-12-29T08:25:20;26.60;99.90
35129;DHT22;21301;43.626;10.580;2022-12-29T08:27:46;26.80;99.90
35129;DHT22;21301;43.626;10.580;2022-12-29T08:30:12;26.70;99.90
35129;DHT22;21301;43.626;10.580;2022-12-29T08:32:38;26.80;99.90
35129;DHT22;21301;43.626;10.580;2022-12-29T08:35:04;27.60;99.90
35129;DHT22;21301;43.626;10.580;2022-12-29T08:37:32;28.10;99.70
35129;DHT22;21301;43.626;10.580;2022-12-29T08:39:58;28.10;98.90
35129;DHT22;21301;43.626;10.580;2022-12-29T08:42:25;27.60;99.10
35129;DHT22;21301;43.626;10.580;2022-12-29T08:44:57;26.00;99.30
35129;DHT22;21301;43.626;10.580;2022-12-29T08:47:23;24.00;99.80
35129;DHT22;21301;43.626;10.580;2022-12-29T08:49:48;22.60;99.90
35129;DHT22;21301;43.626;10.580;2022-12-29T08:52:15;21.40;99.90
35129;DHT22;21301;43.626;10.580;2022-12-29T08:54:40;20.60;99.90
35129;DHT22;21301;43.626;10.580;2022-12-29T08:57:06;20.50;99.90
35129;DHT22;21301;43.626;10.580;2022-12-29T08:59:38;20.50;99.90
35129;DHT22;21301;43.626;10.580;2022-12-29T09:02:03;20.20;99.90
35129;DHT22;21301;43.626;10.580;2022-12-29T09:04:31;20.00;99.90
35129;DHT22;21301;43.626;10.580;2022-12-29T09:06:57;19.90;99.90
35129;DHT22;21301;43.626;10.580;2022-12-29T09:09:23;19.70;99.90
35129;DHT22;21301;43.626;10.580;2022-12-29T09:11:49;19.90;99.90
35129;DHT22;21301;43.626;10.580;2022-12-29T09:14:15;19.90;99.90
35129;DHT22;21301;43.626;10.580;2022-12-29T09:16:41;19.50;99.90
35129;DHT22;21301;43.626;10.580;2022-12-29T09:19:25;19.80;99.90
35129;DHT22;21301;43.626;10.580;2022-12-29T09:21:51;19.50;99.90
35129;DHT22;21301;43.626;10.580;2022-12-29T09:24:17;19.50;99.90
35129;DHT22;21301;43.626;10.580;2022-12-29T09:26:43;19.40;99.90
35129;DHT22;21301;43.626;10.580;2022-12-29T09:29:08;19.40;99.90
35129;DHT22;21301;43.626;10.580;2022-12-29T09:31:34;19.60;99.90
35129;DHT22;21301;43.626;10.580;2022-12-29T09:34:00;19.70;99.90
35129;DHT22;21301;43.626;10.580;2022-12-29T09:36:26;19.60;99.90
35129;DHT22;21301;43.626;10.580;2022-12-29T09:38:53;19.70;99.90
35129;DHT22;21301;43.626;10.580;2022-12-29T09:41:29;19.50;99.90
35129;DHT22;21301;43.626;10.580;2022-12-29T09:46:47;19.40;99.90
35129;DHT22;21301;43.626;10.580;2022-12-29T09:51:54;20.20;99.90
35129;DHT22;21301;43.626;10.580;2022-12-29T09:54:23;20.90;99.90
35129;DHT22;21301;43.626;10.580;2022-12-29T09:56:51;21.00;99.90
35129;DHT22;21301;43.626;10.580;2022-12-29T09:59:20;21.30;99.90
35129;DHT22;21301;43.626;10.580;2022-12-29T10:04:38;21.70;99.90
35129;DHT22;21301;43.626;10.580;2022-12-29T10:18:40;21.60;99.90
35129;DHT22;21301;43.626;10.580;2022-12-29T10:21:46;21.50;99.90
35129;DHT22;21301;43.626;10.580;2022-12-29T10:24:16;21.40;99.90
35129;DHT22;21301;43.626;10.580;2022-12-29T10:26:46;21.20;99.90
35129;DHT22;21301;43.626;10.580;2022-12-29T10:29:22;21.30;99.90
35129;DHT22;21301;43.626;10.580;2022-12-29T10:31:57;21.20;99.90
35129;DHT22;21301;43.626;10.580;2022-12-29T10:34:37;21.30;99.90
35129;DHT22;21301;43.626;10.580;2022-12-29T10:43:26;21.50;99.90
35129;DHT22;21301;43.626;10.580;2022-12-29T10:45:57;21.10;99.90
35129;DHT22;21301;43.626;10.580;2022-12-29T10:48:32;21.30;99.90
35129;DHT22;21301;43.626;10.580;2022-12-29T10:51:00;21.00;99.90
35129;DHT22;21301;43.626;10.580;2022-12-29T10:53:34;20.90;99.90
35129;DHT22;21301;43.626;10.580;2022-12-29T10:56:02;20.70;99.90
35129;DHT22;21301;43.626;10.580;2022-12-29T10:58:29;20.40;99.90
35129;DHT22;21301;43.626;10.580;2022-12-29T11:00:57;20.00;99.90
35129;DHT22;21301;43.626;10.580;2022-12-29T11:03:48;19.50;99.90
35129;DHT22;21301;43.626;10.580;2022-12-29T11:08:56;18.60;99.90
35129;DHT22;21301;43.626;10.580;2022-12-29T11:11:25;18.30;99.90
35129;DHT22;21301;43.626;10.580;2022-12-29T11:14:07;18.30;99.90
35129;DHT22;21301;43.626;10.580;2022-12-29T11:16:34;18.10;99.90
35129;DHT22;21301;43.626;10.580;2022-12-29T11:19:01;18.00;99.90
35129;DHT22;21301;43.626;10.580;2022-12-29T11:24:04;18.20;99.90
35129;DHT22;21301;43.626;10.580;2022-12-29T11:26:31;18.20;99.90
35129;DHT22;21301;43.626;10.580;2022-12-29T11:29:21;18.40;99.90
35129;DHT22;21301;43.626;10.580;2022-12-29T11:31:53;18.60;99.90
35129;DHT22;21301;43.626;10.580;2022-12-29T11:34:46;18.90;99.90
35129;DHT22;21301;43.626;10.580;2022-12-29T11:40:02;18.80;99.90
35129;DHT22;21301;43.626;10.580;2022-12-29T11:42:41;19.10;99.90
35129;DHT22;21301;43.626;10.580;2022-12-29T11:45:15;19.40;99.90
35129;DHT22;21301;43.626;10.580;2022-12-29T11:47:50;19.60;99.90
35129;DHT22;21301;43.626;10.580;2022-12-29T11:50:28;19.60;99.90
35129;DHT22;21301;43.626;10.580;2022-12-29T11:53:03;19.60;99.90
35129;DHT22;21301;43.626;10.580;2022-12-29T11:55:30;19.50;99.90
35129;DHT22;21301;43.626;10.580;2022-12-29T11:58:00;19.30;99.90
35129;DHT22;21301;43.626;10.580;2022-12-29T12:00:29;19.50;99.90
35129;DHT22;21301;43.626;10.580;2022-12-29T12:05:33;20.00;99.90
35129;DHT22;21301;43.626;10.580;2022-12-29T12:08:16;20.40;99.90
35129;DHT22;21301;43.626;10.580;2022-12-29T12:10:53;20.30;99.90
35129;DHT22;21301;43.626;10.580;2022-12-29T12:13:37;19.80;99.90
35129;DHT22;21301;43.626;10.580;2022-12-29T12:16:09;20.20;99.90
35129;DHT22;21301;43.626;10.580;2022-12-29T12:21:18;19.70;99.90
35129;DHT22;21301;43.626;10.580;2022-12-29T12:26:18;19.50;99.90
35129;DHT22;21301;43.626;10.580;2022-12-29T12:28:55;18.60;99.90
35129;DHT22;21301;43.626;10.580;2022-12-29T12:31:53;18.40;99.90
35129;DHT22;21301;43.626;10.580;2022-12-29T12:34:32;18.40;99.90
35129;DHT22;21301;43.626;10.580;2022-12-29T12:40:17;18.50;99.90
35129;DHT22;21301;43.626;10.580;2022-12-29T12:45:48;18.40;99.90
35129;DHT22;21301;43.626;10.580;2022-12-29T12:59:52;18.50;99.90
35129;DHT22;21301;43.626;10.580;2022-12-29T13:10:54;18.20;99.90
35129;DHT22;21301;43.626;10.580;2022-12-29T13:13:34;18.20;99.90
35129;DHT22;21301;43.626;10.580;2022-12-29T13:16:13;18.00;99.90
35129;DHT22;21301;43.626;10.580;2022-12-29T13:26:40;17.80;99.90
35129;DHT22;21301;43.626;10.580;2022-12-29T13:37:07;17.80;99.90
35129;DHT22;21301;43.626;10.580;2022-12-29T13:39:39;17.60;99.90
35129;DHT22;21301;43.626;10.580;2022-12-29T13:42:06;17.70;99.90
35129;DHT22;21301;43.626;10.580;2022-12-29T13:44:52;17.70;99.90
35129;DHT22;21301;43.626;10.580;2022-12-29T13:49:53;17.50;99.90
35129;DHT22;21301;43.626;10.580;2022-12-29T13:52:28;17.60;99.90
35129;DHT22;21301;43.626;10.580;2022-12-29T13:58:34;17.50;99.90
35129;DHT22;21301;43.626;10.580;2022-12-29T14:04:14;17.30;99.90
35129;DHT22;21301;43.626;10.580;2022-12-29T14:06:47;17.20;99.90
35129;DHT22;21301;43.626;10.580;2022-12-29T14:14:52;17.20;99.90
35129;DHT22;21301;43.626;10.580;2022-12-29T14:17:20;17.10;99.90
35129;DHT22;21301;43.626;10.580;2022-12-29T14:19:50;17.00;99.90
35129;DHT22;21301;43.626;10.580;2022-12-29T14:22:24;17.10;99.90
35129;DHT22;21301;43.626;10.580;2022-12-29T14:24:50;17.00;99.90
35129;DHT22;21301;43.626;10.580;2022-12-29T14:34:58;17.00;99.90
35129;DHT22;21301;43.626;10.580;2022-12-29T14:37:25;16.90;99.90
35129;DHT22;21301;43.626;10.580;2022-12-29T14:42:47;16.80;99.90
35129;DHT22;21301;43.626;10.580;2022-12-29T14:47:49;16.70;99.90
35129;DHT22;21301;43.626;10.580;2022-12-29T14:50:25;16.60;99.90
35129;DHT22;21301;43.626;10.580;2022-12-29T14:52:59;16.40;99.90
35129;DHT22;21301;43.626;10.580;2022-12-29T14:55:42;16.30;99.90
35129;DHT22;21301;43.626;10.580;2022-12-29T14:58:21;16.20;99.90
35129;DHT22;21301;43.626;10.580;2022-12-29T15:00:48;16.00;99.90
35129;DHT22;21301;43.626;10.580;2022-12-29T15:03:36;16.00;99.90
35129;DHT22;21301;43.626;10.580;2022-12-29T15:06:04;16.00;99.90
35129;DHT22;21301;43.626;10.580;2022-12-29T15:08:39;15.90;99.90
35129;DHT22;21301;43.626;10.580;2022-12-29T15:11:10;15.80;99.90
35129;DHT22;21301;43.626;10.580;2022-12-29T15:13:40;15.70;99.90
35129;DHT22;21301;43.626;10.580;2022-12-29T15:16:34;15.60;99.90
35129;DHT22;21301;43.626;10.580;2022-12-29T15:19:03;15.60;99.90
35129;DHT22;21301;43.626;10.580;2022-12-29T15:21:33;15.60;99.90
35129;DHT22;21301;43.626;10.580;2022-12-29T15:24:00;15.50;99.90
35129;DHT22;21301;43.626;10.580;2022-12-29T15:26:38;15.50;99.90
35129;DHT22;21301;43.626;10.580;2022-12-29T15:29:04;15.40;99.90
35129;DHT22;21301;43.626;10.580;2022-12-29T15:31:30;15.40;99.90
35129;DHT22;21301;43.626;10.580;2022-12-29T15:34:09;15.30;99.90
35129;DHT22;21301;43.626;10.580;2022-12-29T15:36:40;15.30;99.90
35129;DHT22;21301;43.626;10.580;2022-12-29T15:41:54;15.20;99.90
35129;DHT22;21301;43.626;10.580;2022-12-29T15:47:03;15.10;99.90
35129;DHT22;21301;43.626;10.580;2022-12-29T15:49:30;15.10;99.90
35129;DHT22;21301;43.626;10.580;2022-12-29T15:51:55;15.10;99.90
35129;DHT22;21301;43.626;10.580;2022-12-29T15:54:23;15.10;99.90
35129;DHT22;21301;43.626;10.580;2022-12-29T15:56:49;15.10;99.90
35129;DHT22;21301;43.626;10.580;2022-12-29T15:59:34;15.20;99.90
35129;DHT22;21301;43.626;10.580;2022-12-29T16:02:01;15.30;99.90
35129;DHT22;21301;43.626;10.580;2022-12-29T16:04:30;15.20;99.90
35129;DHT22;21301;43.626;10.580;2022-12-29T16:07:02;15.30;99.90
35129;DHT22;21301;43.626;10.580;2022-12-29T16:09:44;15.30;99.90
35129;DHT22;21301;43.626;10.580;2022-12-29T16:12:17;15.30;99.90
35129;DHT22;21301;43.626;10.580;2022-12-29T16:14:47;15.20;99.90
35129;DHT22;21301;43.626;10.580;2022-12-29T16:17:16;15.10;99.90
35129;DHT22;21301;43.626;10.580;2022-12-29T16:19:52;15.10;99.90
35129;DHT22;21301;43.626;10.580;2022-12-29T16:22:38;15.20;99.90
35129;DHT22;21301;43.626;10.580;2022-12-29T16:25:22;15.10;99.90
35129;DHT22;21301;43.626;10.580;2022-12-29T16:27:48;15.10;99.90
35129;DHT22;21301;43.626;10.580;2022-12-29T16:30:43;15.00;99.90
35129;DHT22;21301;43.626;10.580;2022-12-29T16:33:36;14.80;99.90
35129;DHT22;21301;43.626;10.580;2022-12-29T16:38:47;14.60;99.90
35129;DHT22;21301;43.626;10.580;2022-12-29T16:41:28;14.50;99.90
35129;DHT22;21301;43.626;10.580;2022-12-29T16:44:17;14.40;99.90
35129;DHT22;21301;43.626;10.580;2022-12-29T16:49:32;14.40;99.90
35129;DHT22;21301;43.626;10.580;2022-12-29T16:51:58;14.40;99.90
35129;DHT22;21301;43.626;10.580;2022-12-29T16:54:30;14.40;99.90
35129;DHT22;21301;43.626;10.580;2022-12-29T16:56:57;14.40;99.90
35129;DHT22;21301;43.626;10.580;2022-12-29T16:59:37;14.40;99.90
35129;DHT22;21301;43.626;10.580;2022-12-29T17:02:15;14.40;99.90
35129;DHT22;21301;43.626;10.580;2022-12-29T17:04:41;14.40;99.90
35129;DHT22;21301;43.626;10.580;2022-12-29T17:07:16;14.40;99.90
35129;DHT22;21301;43.626;10.580;2022-12-29T17:09:42;14.40;99.90
35129;DHT22;21301;43.626;10.580;2022-12-29T17:12:11;14.40;99.90
35129;DHT22;21301;43.626;10.580;2022-12-29T17:15:00;14.40;99.90
35129;DHT22;21301;43.626;10.580;2022-12-29T17:17:47;14.50;99.90
35129;DHT22;21301;43.626;10.580;2022-12-29T17:20:17;14.50;99.90
35129;DHT22;21301;43.626;10.580;2022-12-29T17:22:43;14.50;99.90
35129;DHT22;21301;43.626;10.580;2022-12-29T17:25:21;14.50;99.90
35129;DHT22;21301;43.626;10.580;2022-12-29T17:27:52;14.50;99.90
35129;DHT22;21301;43.626;10.580;2022-12-29T17:30:21;14.40;99.90
35129;DHT22;21301;43.626;10.580;2022-12-29T17:33:18;14.50;99.90
35129;DHT22;21301;43.626;10.580;2022-12-29T17:35:42;14.50;99.90
35129;DHT22;21301;43.626;10.580;2022-12-29T17:40:45;14.50;99.90
35129;DHT22;21301;43.626;10.580;2022-12-29T17:43:14;14.50;99.90
35129;DHT22;21301;43.626;10.580;2022-12-29T17:45:41;14.50;99.90
35129;DHT22;21301;43.626;10.580;2022-12-29T17:48:16;14.50;99.90
35129;DHT22;21301;43.626;10.580;2022-12-29T17:50:43;14.40;99.90
35129;DHT22;21301;43.626;10.580;2022-12-29T17:53:19;14.40;99.90
35129;DHT22;21301;43.626;10.580;2022-12-29T17:55:46;14.30;99.90
35129;DHT22;21301;43.626;10.580;2022-12-29T17:58:19;14.40;99.90
35129;DHT22;21301;43.626;10.580;2022-12-29T18:00:46;14.30;99.90
35129;DHT22;21301;43.626;10.580;2022-12-29T18:05:53;14.10;99.90
35129;DHT22;21301;43.626;10.580;2022-12-29T18:08:18;13.80;99.90
35129;DHT22;21301;43.626;10.580;2022-12-29T18:10:44;13.70;99.90
35129;DHT22;21301;43.626;10.580;2022-12-29T18:13:22;13.80;99.90
35129;DHT22;21301;43.626;10.580;2022-12-29T18:15:51;13.80;99.90
35129;DHT22;21301;43.626;10.580;2022-12-29T18:18:19;13.90;99.90
35129;DHT22;21301;43.626;10.580;2022-12-29T18:20:46;13.90;99.90
35129;DHT22;21301;43.626;10.580;2022-12-29T18:23:36;13.90;99.90
35129;DHT22;21301;43.626;10.580;2022-12-29T18:26:16;13.90;99.90
35129;DHT22;21301;43.626;10.580;2022-12-29T18:28:43;13.80;99.90